createdAt,value
2018-06-28T00:00:10.149Z,95392.51
2018-06-28T00:03:14.424Z,95385.56
2018-06-28T00:06:18.710Z,95382.45
2018-06-28T00:09:23.208Z,95385.30
2018-06-28T00:12:27.559Z,95385.06
2018-06-28T00:15:31.894Z,95386.19
2018-06-28T00:18:36.238Z,95392.97
2018-06-28T00:21:41.110Z,95388.34
2018-06-28T00:24:45.566Z,95388.94
2018-06-28T00:27:50.234Z,95397.88
2018-06-28T00:30:54.739Z,95392.42
2018-06-28T00:34:02.213Z,95388.80
2018-06-28T00:37:06.515Z,95391.09
2018-06-28T00:40:10.814Z,95385.52
2018-06-28T00:43:16.246Z,95383.83
2018-06-28T00:46:20.721Z,95383.73
2018-06-28T00:49:25.342Z,95371.09
2018-06-28T00:52:29.956Z,95369.56
2018-06-28T00:55:34.354Z,95362.23
2018-06-28T00:58:38.676Z,95357.05
2018-06-28T01:01:42.739Z,95357.39
2018-06-28T01:04:47.005Z,95359.79
2018-06-28T01:07:51.365Z,95351.73
2018-06-28T01:10:55.632Z,95350.45
2018-06-28T01:14:00.122Z,95354.58
2018-06-28T01:17:04.469Z,95353.31
2018-06-28T01:20:09.278Z,95350.88
2018-06-28T01:23:13.577Z,95348.77
2018-06-28T01:26:17.867Z,95344.23
2018-06-28T01:29:22.163Z,95340.58
2018-06-28T01:32:26.474Z,95344.77
2018-06-28T01:35:31.030Z,95334.70
2018-06-28T01:38:35.585Z,95336.40
2018-06-28T01:41:56.844Z,95332.67
2018-06-28T01:45:01.131Z,95329.52
2018-06-28T01:48:05.529Z,95326.88
2018-06-28T01:51:09.955Z,95333.75
2018-06-28T01:54:15.303Z,95336.67
2018-06-28T01:57:19.585Z,95334.05
2018-06-28T02:00:23.877Z,95331.03
2018-06-28T02:03:28.530Z,95329.90
2018-06-28T02:06:32.942Z,95333.62
2018-06-28T02:09:37.521Z,95333.30
2018-06-28T02:12:41.941Z,95334.39
2018-06-28T02:15:46.225Z,95333.24
2018-06-28T02:18:50.503Z,95337.27
2018-06-28T02:21:54.768Z,95333.34
2018-06-28T02:24:59.165Z,95332.08
2018-06-28T02:28:03.482Z,95323.37
2018-06-28T02:31:07.918Z,95324.81
2018-06-28T02:34:13.185Z,95328.38
2018-06-28T02:37:17.972Z,95337.77
2018-06-28T02:40:22.274Z,95327.16
2018-06-28T02:43:26.566Z,95330.99
2018-06-28T02:46:30.890Z,95333.03
2018-06-28T02:49:35.293Z,95326.85
2018-06-28T02:52:39.843Z,95331.52
2018-06-28T02:55:44.138Z,95331.55
2018-06-28T02:58:48.546Z,95328.20
2018-06-28T03:01:53.218Z,95333.22
2018-06-28T03:04:57.498Z,95337.77
2018-06-28T03:08:01.865Z,95324.91
2018-06-28T03:11:06.145Z,95328.12
2018-06-28T03:14:10.479Z,95323.93
2018-06-28T03:17:17.745Z,95319.80
2018-06-28T03:20:22.110Z,95320.03
2018-06-28T03:23:26.403Z,95323.25
2018-06-28T03:26:30.752Z,95324.03
2018-06-28T03:29:35.738Z,95330.46
2018-06-28T03:32:40.243Z,95337.57
2018-06-28T03:35:44.509Z,95333.70
2018-06-28T03:38:49.394Z,95329.26
2018-06-28T03:41:53.682Z,95320.94
2018-06-28T03:44:57.988Z,95313.02
2018-06-28T03:48:02.810Z,95310.44
2018-06-28T03:51:07.492Z,95315.58
2018-06-28T03:54:12.113Z,95320.71
2018-06-28T03:57:16.462Z,95315.28
2018-06-28T04:00:20.821Z,95320.81
2018-06-28T04:03:25.891Z,95321.59
2018-06-28T04:06:30.336Z,95323.37
2018-06-28T04:09:34.633Z,95324.05
2018-06-28T04:12:39.530Z,95317.60
2018-06-28T04:15:44.493Z,95321.05
2018-06-28T04:18:49.046Z,95321.29
2018-06-28T04:21:53.415Z,95327.16
2018-06-28T04:25:01.367Z,95324.27
2018-06-28T04:28:06.661Z,95318.49
2018-06-28T04:31:11.005Z,95320.14
2018-06-28T04:34:15.934Z,95324.92
2018-06-28T04:37:20.449Z,95320.63
2018-06-28T04:40:24.766Z,95322.25
2018-06-28T04:43:29.704Z,95322.83
2018-06-28T04:46:34.662Z,95323.10
2018-06-28T04:49:39.285Z,95315.67
2018-06-28T04:52:43.603Z,95321.91
2018-06-28T04:55:47.902Z,95316.27
2018-06-28T04:58:52.229Z,95318.38
2018-06-28T05:01:56.481Z,95315.00
2018-06-28T05:05:01.083Z,95316.95
2018-06-28T05:08:05.414Z,95312.38
2018-06-28T05:11:10.442Z,95307.06
2018-06-28T05:14:15.159Z,95307.76
2018-06-28T05:17:19.596Z,95311.31
2018-06-28T05:20:25.091Z,95319.82
2018-06-28T05:23:30.662Z,95319.73
2018-06-28T05:26:35.424Z,95312.95
2018-06-28T05:29:41.113Z,95311.26
2018-06-28T05:32:45.550Z,95303.02
2018-06-28T05:35:50.152Z,95306.37
2018-06-28T05:38:56.221Z,95306.48
2018-06-28T05:42:00.910Z,95297.66
2018-06-28T05:45:06.499Z,95305.80
2018-06-28T05:48:11.121Z,95302.59
2018-06-28T05:51:15.874Z,95300.51
2018-06-28T05:54:20.200Z,95301.17
2018-06-28T05:57:25.653Z,95308.16
2018-06-28T06:00:30.150Z,95303.70
2018-06-28T06:03:39.742Z,95303.00
2018-06-28T06:06:47.107Z,95306.64
2018-06-28T06:09:51.479Z,95300.30
2018-06-28T06:12:56.278Z,95302.55
2018-06-28T06:16:00.606Z,95299.59
2018-06-28T06:19:05.751Z,95297.84
2018-06-28T06:22:10.105Z,95285.69
2018-06-28T06:25:14.609Z,95284.33
2018-06-28T06:28:19.062Z,95279.22
2018-06-28T06:31:23.942Z,95282.74
2018-06-28T06:34:29.211Z,95276.27
2018-06-28T06:37:33.726Z,95277.24
2018-06-28T06:40:38.160Z,95274.02
2018-06-28T06:43:42.522Z,95267.27
2018-06-28T06:46:46.805Z,95273.88
2018-06-28T06:49:51.130Z,95272.43
2018-06-28T06:52:56.550Z,95273.20
2018-06-28T06:56:00.853Z,95275.65
2018-06-28T06:59:05.396Z,95277.56
2018-06-28T07:02:09.714Z,95280.78
2018-06-28T07:05:13.997Z,95284.37
2018-06-28T07:08:18.301Z,95285.77
2018-06-28T07:11:22.683Z,95285.91
2018-06-28T07:14:26.982Z,95283.31
2018-06-28T07:17:31.286Z,95277.94
2018-06-28T07:20:35.769Z,95276.67
2018-06-28T07:23:40.093Z,95280.02
2018-06-28T07:26:44.791Z,95283.94
2018-06-28T07:29:49.171Z,95288.58
2018-06-28T07:32:53.453Z,95282.74
2018-06-28T07:35:57.807Z,95276.83
2018-06-28T07:39:02.131Z,95274.02
2018-06-28T07:42:07.879Z,95276.44
2018-06-28T07:45:12.226Z,95279.77
2018-06-28T07:48:16.753Z,95279.37
2018-06-28T07:51:21.074Z,95280.16
2018-06-28T07:54:26.370Z,95291.46
2018-06-28T07:57:30.801Z,95293.42
2018-06-28T08:00:35.101Z,95294.23
2018-06-28T08:03:40.439Z,95287.33
2018-06-28T08:06:45.751Z,95278.36
2018-06-28T08:09:50.061Z,95278.44
2018-06-28T08:12:54.379Z,95281.66
2018-06-28T08:15:58.649Z,95280.82
2018-06-28T08:19:03.127Z,95284.88
2018-06-28T08:22:07.416Z,95288.45
2018-06-28T08:25:12.954Z,95286.34
2018-06-28T08:28:17.269Z,95297.33
2018-06-28T08:31:21.769Z,95293.45
2018-06-28T08:34:26.085Z,95298.47
2018-06-28T08:37:31.439Z,95298.02
2018-06-28T08:40:35.989Z,95300.62
2018-06-28T08:43:40.346Z,95285.00
2018-06-28T08:46:44.660Z,95290.27
2018-06-28T08:49:49.333Z,95282.36
2018-06-28T08:52:53.670Z,95282.61
2018-06-28T08:55:58.285Z,95278.52
2018-06-28T08:59:02.562Z,95277.81
2018-06-28T09:02:07.228Z,95280.70
2018-06-28T09:05:11.777Z,95281.21
2018-06-28T09:08:16.991Z,95278.63
2018-06-28T09:11:21.338Z,95277.88
2018-06-28T09:14:25.644Z,95284.44
2018-06-28T09:17:31.538Z,95280.88
2018-06-28T09:20:35.966Z,95283.31
2018-06-28T09:23:40.402Z,95277.14
2018-06-28T09:26:44.741Z,95281.33
2018-06-28T09:29:49.094Z,95276.53
2018-06-28T09:32:53.926Z,95266.26
2018-06-28T09:35:58.495Z,95264.80
2018-06-28T09:39:03.206Z,95261.95
2018-06-28T09:42:08.265Z,95262.23
2018-06-28T09:45:12.541Z,95257.60
2018-06-28T09:48:18.058Z,95250.81
2018-06-28T09:51:22.619Z,95240.52
2018-06-28T09:54:26.926Z,95242.86
2018-06-28T09:57:31.098Z,95246.31
2018-06-28T10:00:41.517Z,95237.32
2018-06-28T10:03:47.454Z,95244.87
2018-06-28T10:06:52.025Z,95236.05
2018-06-28T10:09:56.390Z,95239.50
2018-06-28T10:13:00.837Z,95238.12
2018-06-28T10:16:05.825Z,95236.29
2018-06-28T10:19:10.257Z,95235.70
2018-06-28T10:22:14.534Z,95243.27
2018-06-28T10:25:18.858Z,95234.78
2018-06-28T10:28:24.182Z,95230.80
2018-06-28T10:31:28.488Z,95237.02
2018-06-28T10:34:32.815Z,95233.17
2018-06-28T10:37:37.138Z,95236.38
2018-06-28T10:40:41.544Z,95234.34
2018-06-28T10:43:45.824Z,95229.81
2018-06-28T10:46:50.205Z,95227.03
2018-06-28T10:49:54.733Z,95223.66
2018-06-28T10:52:59.293Z,95216.97
2018-06-28T10:56:04.698Z,95214.34
2018-06-28T10:59:09.181Z,95213.34
2018-06-28T11:02:13.558Z,95209.55
2018-06-28T11:05:18.032Z,95204.06
2018-06-28T11:08:22.592Z,95205.88
2018-06-28T11:11:27.782Z,95208.20
2018-06-28T11:14:33.262Z,95208.91
2018-06-28T11:17:38.012Z,95210.77
2018-06-28T11:20:42.311Z,95205.96
2018-06-28T11:23:46.724Z,95200.40
2018-06-28T11:26:51.261Z,95200.30
2018-06-28T11:29:55.838Z,95195.09
2018-06-28T11:33:00.590Z,95194.27
2018-06-28T11:36:05.007Z,95197.30
2018-06-28T11:39:11.860Z,95186.23
2018-06-28T11:42:16.225Z,95182.66
2018-06-28T11:45:20.930Z,95178.13
2018-06-28T11:48:28.541Z,95174.97
2018-06-28T11:51:33.467Z,95177.93
2018-06-28T11:54:37.832Z,95177.50
2018-06-28T11:57:43.805Z,95168.00
2018-06-28T12:00:48.250Z,95165.55
2018-06-28T12:03:53.138Z,95163.34
2018-06-28T12:06:58.268Z,95164.39
2018-06-28T12:10:02.394Z,95155.40
2018-06-28T12:13:06.896Z,95156.25
2018-06-28T12:16:11.296Z,95149.05
2018-06-28T12:19:15.603Z,95146.52
2018-06-28T12:22:19.981Z,95146.09
2018-06-28T12:25:24.467Z,95143.63
2018-06-28T12:28:28.819Z,95134.84
2018-06-28T12:31:33.215Z,95136.73
2018-06-28T12:34:37.645Z,95134.06
2018-06-28T12:37:42.060Z,95129.50
2018-06-28T12:40:46.818Z,95131.48
2018-06-28T12:43:51.959Z,95128.16
2018-06-28T12:49:05.967Z,95116.13
2018-06-28T12:52:27.410Z,95113.08
2018-06-28T12:56:50.015Z,95115.20
2018-06-28T12:59:54.935Z,95106.31
2018-06-28T13:02:59.225Z,95099.44
2018-06-28T13:06:03.615Z,95104.20
2018-06-28T13:09:14.046Z,95102.20
2018-06-28T13:12:18.435Z,95107.90
2018-06-28T13:15:22.922Z,95110.27
2018-06-28T13:18:27.214Z,95111.27
2018-06-28T13:21:31.556Z,95115.20
2018-06-28T13:24:37.259Z,95115.13
2018-06-28T13:27:41.718Z,95106.76
2018-06-28T13:30:49.211Z,95112.03
2018-06-28T13:33:54.353Z,95101.70
2018-06-28T13:36:58.646Z,95096.58
2018-06-28T13:40:02.989Z,95105.94
2018-06-28T13:43:07.360Z,95101.28
2018-06-28T13:46:11.687Z,95096.70
2018-06-28T13:49:16.181Z,95093.13
2018-06-28T13:52:20.525Z,95096.14
2018-06-28T13:55:25.002Z,95084.67
2018-06-28T13:58:31.468Z,95088.12
2018-06-28T14:01:37.155Z,95080.32
2018-06-28T14:04:44.057Z,95075.24
2018-06-28T14:07:50.863Z,95067.08
2018-06-28T14:10:55.349Z,95071.52
2018-06-28T14:13:59.655Z,95079.97
2018-06-28T14:17:04.221Z,95074.96
2018-06-28T14:20:09.942Z,95078.89
2018-06-28T14:23:14.460Z,95074.31
2018-06-28T14:26:18.858Z,95067.77
2018-06-28T14:29:23.466Z,95067.16
2018-06-28T14:32:28.089Z,95064.62
2018-06-28T14:35:32.941Z,95060.95
2018-06-28T14:38:37.377Z,95056.55
2018-06-28T14:41:42.542Z,95048.02
2018-06-28T14:44:48.643Z,95044.01
2018-06-28T14:47:53.677Z,95045.48
2018-06-28T14:50:58.466Z,95037.45
2018-06-28T14:54:02.920Z,95042.24
2018-06-28T14:57:07.669Z,95038.45
2018-06-28T15:00:12.207Z,95034.65
2018-06-28T15:03:17.412Z,95028.61
2018-06-28T15:06:22.319Z,95027.96
2018-06-28T15:09:27.270Z,95028.34
2018-06-28T15:12:31.735Z,95020.50
2018-06-28T15:15:36.136Z,95025.23
2018-06-28T15:18:40.356Z,95022.13
2018-06-28T15:21:44.901Z,95017.78
2018-06-28T15:24:49.877Z,95015.88
2018-06-28T15:27:54.308Z,95011.66
2018-06-28T15:30:58.672Z,95017.00
2018-06-28T15:34:02.993Z,95013.08
2018-06-28T15:37:07.702Z,95006.31
2018-06-28T15:40:12.129Z,95015.31
2018-06-28T15:43:16.451Z,95008.08
2018-06-28T15:46:21.411Z,95008.72
2018-06-28T15:49:25.800Z,95013.08
2018-06-28T15:52:30.880Z,95005.31
2018-06-28T15:55:35.198Z,95009.55
2018-06-28T15:58:39.581Z,95002.38
2018-06-28T16:01:44.077Z,95002.17
2018-06-28T16:04:48.485Z,94998.16
2018-06-28T16:07:52.817Z,95002.30
2018-06-28T16:10:57.532Z,95000.75
2018-06-28T16:14:02.042Z,94994.16
2018-06-28T16:17:06.684Z,94999.41
2018-06-28T16:20:11.826Z,94995.56
2018-06-28T16:23:16.252Z,94991.91
2018-06-28T16:26:20.745Z,94983.41
2018-06-28T16:29:25.197Z,94989.23
2018-06-28T16:32:29.570Z,94995.63
2018-06-28T16:35:37.738Z,94990.56
2018-06-28T16:38:43.661Z,94989.58
2018-06-28T16:41:48.036Z,94985.22
2018-06-28T16:44:53.732Z,94988.02
2018-06-28T16:47:58.427Z,94983.80
2018-06-28T16:51:02.835Z,94983.24
2018-06-28T16:54:07.151Z,94990.44
2018-06-28T16:57:11.586Z,94991.39
2018-06-28T17:00:16.298Z,94995.19
2018-06-28T17:03:21.105Z,94994.84
2018-06-28T17:06:25.509Z,94993.45
2018-06-28T17:09:30.313Z,94984.58
2018-06-28T17:12:35.035Z,94987.55
2018-06-28T17:15:39.435Z,94984.31
2018-06-28T17:18:44.502Z,94985.35
2018-06-28T17:21:49.605Z,94991.47
2018-06-28T17:24:53.946Z,94992.17
2018-06-28T17:27:58.305Z,94994.28
2018-06-28T17:31:03.462Z,94992.04
2018-06-28T17:34:07.877Z,94996.19
2018-06-28T17:37:12.335Z,94997.09
2018-06-28T17:40:16.785Z,94997.09
2018-06-28T17:43:21.121Z,94995.19
2018-06-28T17:46:25.786Z,94993.25
2018-06-28T17:49:30.138Z,94998.98
2018-06-28T17:52:34.482Z,94999.50
2018-06-28T17:55:39.105Z,94993.67
2018-06-28T17:58:43.302Z,94997.30
2018-06-28T18:01:48.392Z,94995.91
2018-06-28T18:04:52.795Z,94996.81
2018-06-28T18:07:57.201Z,95000.83
2018-06-28T18:11:01.706Z,95000.39
2018-06-28T18:14:06.267Z,95002.03
2018-06-28T18:17:10.661Z,95000.34
2018-06-28T18:20:15.220Z,95006.04
2018-06-28T18:23:19.538Z,94999.70
2018-06-28T18:26:23.902Z,95004.49
2018-06-28T18:29:28.614Z,95002.59
2018-06-28T18:32:35.704Z,94997.53
2018-06-28T18:35:41.361Z,94998.29
2018-06-28T18:38:45.803Z,94997.12
2018-06-28T18:41:50.548Z,95001.69
2018-06-28T18:44:55.229Z,95000.96
2018-06-28T18:48:00.026Z,95002.08
2018-06-28T18:51:04.576Z,95004.05
2018-06-28T18:54:09.265Z,95003.58
2018-06-28T18:57:15.207Z,95003.28
2018-06-28T19:00:19.952Z,95009.83
2018-06-28T19:03:24.787Z,95006.87
2018-06-28T19:06:29.448Z,95012.44
2018-06-28T19:09:39.120Z,95008.98
2018-06-28T19:12:43.684Z,95016.16
2018-06-28T19:15:53.320Z,95011.87
2018-06-28T19:18:57.825Z,95020.10
2018-06-28T19:22:07.654Z,95018.55
2018-06-28T19:25:12.233Z,95020.79
2018-06-28T19:28:16.728Z,95027.34
2018-06-28T19:31:27.188Z,95032.39
2018-06-28T19:34:32.141Z,95030.84
2018-06-28T19:37:41.858Z,95018.13
2018-06-28T19:40:51.789Z,95018.26
2018-06-28T19:43:56.196Z,95018.63
2018-06-28T19:47:00.655Z,95020.37
2018-06-28T19:50:10.450Z,95024.25
2018-06-28T19:53:16.275Z,95026.83
2018-06-28T19:56:20.657Z,95022.08
2018-06-28T19:59:25.152Z,95021.57
2018-06-28T20:02:34.729Z,95024.37
2018-06-28T20:05:40.005Z,95021.36
2018-06-28T20:08:44.459Z,95020.92
2018-06-28T20:11:48.786Z,95025.29
2018-06-28T20:14:58.676Z,95027.61
2018-06-28T20:18:08.185Z,95034.09
2018-06-28T20:21:12.699Z,95039.03
2018-06-28T20:24:16.944Z,95035.20
2018-06-28T20:27:26.655Z,95042.31
2018-06-28T20:30:37.230Z,95041.20
2018-06-28T20:33:47.505Z,95043.58
2018-06-28T20:36:52.134Z,95034.09
2018-06-28T20:39:56.905Z,95039.86
2018-06-28T20:43:01.465Z,95040.55
2018-06-28T20:46:06.989Z,95052.58
2018-06-28T20:49:11.637Z,95054.08
2018-06-28T20:52:15.816Z,95058.00
2018-06-28T20:55:20.311Z,95058.56
2018-06-28T20:58:24.721Z,95057.15
2018-06-28T21:01:29.029Z,95048.57
2018-06-28T21:04:33.654Z,95053.43
2018-06-28T21:07:38.109Z,95053.77
2018-06-28T21:10:42.688Z,95049.98
2018-06-28T21:13:47.058Z,95049.64
2018-06-28T21:16:51.967Z,95051.76
2018-06-28T21:19:56.275Z,95054.48
2018-06-28T21:23:00.901Z,95060.34
2018-06-28T21:26:06.605Z,95058.36
2018-06-28T21:29:11.008Z,95057.88
2018-06-28T21:32:15.360Z,95056.03
2018-06-28T21:35:19.683Z,95066.86
2018-06-28T21:38:24.014Z,95062.08
2018-06-28T21:41:28.466Z,95065.61
2018-06-28T21:44:33.036Z,95067.86
2018-06-28T21:47:37.861Z,95063.77
2018-06-28T21:50:41.978Z,95072.14
2018-06-28T21:53:46.294Z,95071.92
2018-06-28T21:56:50.830Z,95070.05
2018-06-28T21:59:55.132Z,95068.08
2018-06-28T22:03:00.432Z,95068.64
2018-06-28T22:06:04.734Z,95071.17
2018-06-28T22:09:09.054Z,95072.72
2018-06-28T22:12:13.345Z,95067.22
2018-06-28T22:15:22.201Z,95069.97
2018-06-28T22:18:26.564Z,95064.47
2018-06-28T22:21:30.858Z,95058.29
2018-06-28T22:24:35.202Z,95060.23
2018-06-28T22:27:40.362Z,95055.31
2018-06-28T22:30:44.672Z,95051.55
2018-06-28T22:33:48.971Z,95043.45
2018-06-28T22:36:53.303Z,95043.31
2018-06-28T22:39:57.597Z,95036.91
2018-06-28T22:43:02.434Z,95039.37
2018-06-28T22:46:06.760Z,95037.03
2018-06-28T22:49:11.117Z,95050.75
2018-06-28T22:52:15.682Z,95047.59
2018-06-28T22:55:19.985Z,95048.28
2018-06-28T22:58:24.914Z,95054.36
2018-06-28T23:01:29.084Z,95054.63
2018-06-28T23:04:33.535Z,95056.81
2018-06-28T23:07:37.831Z,95055.95
2018-06-28T23:10:42.130Z,95060.39
2018-06-28T23:13:46.447Z,95052.64
2018-06-28T23:16:50.780Z,95047.03
2018-06-28T23:19:55.276Z,95047.25
2018-06-28T23:22:59.793Z,95044.06
2018-06-28T23:26:04.142Z,95039.35
2018-06-28T23:29:08.428Z,95035.12
2018-06-28T23:32:13.016Z,95035.12
2018-06-28T23:35:17.353Z,95033.31
2018-06-28T23:38:21.645Z,95029.94
2018-06-28T23:41:26.562Z,95024.89
2018-06-28T23:44:30.839Z,95020.86
2018-06-28T23:47:35.178Z,95017.36
2018-06-28T23:50:39.627Z,95018.55
2018-06-28T23:53:43.978Z,95022.70
2018-06-28T23:56:48.416Z,95029.45
2018-06-28T23:59:52.722Z,95023.33
